NZCH/CHC METAR and TAF weather

Enter ICAO airport designator
Station Type Date Time Source
NZCH METAR 2021/01/16 02:00 UTC NOAA

NZCH 160200Z AUTO 08017KT 9999 OVC011/// 19/15 Q1006 BECMG SCT012


Station Type Date Time Source
NZCH Decoded METAR 2021/01/16 02:00 UTC NOAA

Christchurch, New Zealand (NZCH) 43-29S 172-33E 30M
Jan 15, 2021 - 09:00 PM EST / 2021.01.16 0200 UTC
Wind: from the E (080 degrees) at 20 MPH (17 KT):0
Visibility: greater than 7 mile(s):0
Sky conditions: overcast
Temperature: 66 F (19 C)
Dew Point: 59 F (15 C)
Relative Humidity: 77%
Pressure (altimeter): 29.71 in. Hg (1006 hPa)
ob: NZCH 160200Z AUTO 08017KT 9999 OVC011/// 19/15 Q1006 BECMG SCT012
cycle: 2

Station Type Date Time Source
NZCH TAF 2021/01/15 18:06 UTC NOAA

TAF NZCH 151703Z 1518/1618 08015KT 9999 BKN012
BECMG 1521/1523 SCT014
BECMG 1606/1608 BKN012
BECMG 1612/1614 02005KT NSC

Example: see airport list